createdAt,value
2022-07-25T00:01:02.780Z,0.77
2022-07-25T00:03:29.793Z,0.50
2022-07-25T00:05:56.469Z,0.40
2022-07-25T00:08:23.296Z,0.40
2022-07-25T00:10:50.037Z,0.40
2022-07-25T00:13:16.765Z,0.70
2022-07-25T00:15:43.651Z,0.30
2022-07-25T00:18:10.427Z,0.40
2022-07-25T00:20:37.254Z,0.20
2022-07-25T00:23:04.069Z,0.40
2022-07-25T00:25:30.807Z,0.20
2022-07-25T00:27:57.578Z,0.40
2022-07-25T00:30:24.294Z,0.40
2022-07-25T00:32:51.047Z,0.30
2022-07-25T00:35:17.754Z,0.20
2022-07-25T00:37:44.698Z,0.40
2022-07-25T00:40:11.996Z,0.50
2022-07-25T00:42:39.134Z,0.32
2022-07-25T00:45:06.384Z,0.25
2022-07-25T00:47:33.173Z,0.30
2022-07-25T00:50:00.210Z,0.40
2022-07-25T00:52:27.081Z,0.40
2022-07-25T00:54:54.199Z,0.30
2022-07-25T00:57:20.925Z,0.68
2022-07-25T00:59:47.664Z,0.60
2022-07-25T01:02:14.649Z,0.50
2022-07-25T01:04:41.726Z,0.40
2022-07-25T01:07:08.524Z,0.50
2022-07-25T01:09:35.437Z,0.50
2022-07-25T01:12:02.437Z,0.75
2022-07-25T01:14:29.749Z,0.40
2022-07-25T01:16:56.496Z,0.50
2022-07-25T01:19:23.294Z,0.30
2022-07-25T01:21:50.093Z,0.30
2022-07-25T01:24:16.799Z,0.35
2022-07-25T01:26:43.496Z,0.30
2022-07-25T01:29:10.463Z,0.60
2022-07-25T01:31:37.562Z,0.35
2022-07-25T01:34:04.959Z,0.57
2022-07-25T01:36:35.144Z,0.35
2022-07-25T01:39:02.393Z,0.52
2022-07-25T01:41:29.419Z,0.80
2022-07-25T01:43:56.400Z,0.80
2022-07-25T01:46:24.113Z,0.70
2022-07-25T01:48:51.144Z,0.52
2022-07-25T01:51:19.885Z,0.70
2022-07-25T01:53:47.941Z,0.60
2022-07-25T01:56:15.478Z,0.80
2022-07-25T01:58:44.999Z,0.50
2022-07-25T02:01:12.646Z,0.60
2022-07-25T02:03:39.636Z,0.77
2022-07-25T02:06:07.958Z,0.47
2022-07-25T02:08:34.995Z,0.32
2022-07-25T02:11:02.101Z,0.60
2022-07-25T02:13:29.210Z,0.63
2022-07-25T02:15:56.184Z,0.90
2022-07-25T02:18:23.140Z,0.60
2022-07-25T02:20:50.154Z,0.80
2022-07-25T02:23:17.084Z,0.50
2022-07-25T02:25:44.242Z,0.70
2022-07-25T02:28:11.303Z,0.60
2022-07-25T02:30:38.737Z,0.75
2022-07-25T02:33:05.937Z,0.40
2022-07-25T02:35:32.975Z,0.73
2022-07-25T02:38:00.068Z,0.77
2022-07-25T02:40:27.286Z,0.70
2022-07-25T02:42:54.349Z,0.30
2022-07-25T02:45:21.333Z,0.60
2022-07-25T02:47:48.380Z,0.50
2022-07-25T02:50:15.459Z,0.50
2022-07-25T02:52:43.075Z,0.70
2022-07-25T02:55:10.724Z,0.50
2022-07-25T02:57:37.726Z,0.80
2022-07-25T03:00:06.147Z,0.75
2022-07-25T03:02:33.159Z,0.50
2022-07-25T03:05:00.106Z,0.50
2022-07-25T03:28:56.077Z,0.60
2022-07-25T03:31:23.304Z,0.90
2022-07-25T03:33:50.387Z,0.68
2022-07-25T03:36:20.367Z,0.80
2022-07-25T03:38:47.548Z,0.55
2022-07-25T03:41:14.623Z,0.45
2022-07-25T03:43:41.865Z,0.80
2022-07-25T03:46:09.014Z,0.57
2022-07-25T03:48:36.078Z,0.88
2022-07-25T03:51:06.870Z,0.60
2022-07-25T03:53:54.553Z,1.05
2022-07-25T03:56:21.589Z,0.73
2022-07-25T03:58:48.629Z,0.65
2022-07-25T04:01:15.617Z,0.65
2022-07-25T04:03:42.817Z,0.73
2022-07-25T04:06:11.385Z,0.80
2022-07-25T04:08:38.334Z,0.70
2022-07-25T04:11:05.505Z,0.70
2022-07-25T04:13:32.747Z,0.60
2022-07-25T04:15:59.786Z,0.70
2022-07-25T04:18:28.011Z,0.60
2022-07-25T04:20:56.667Z,0.60
2022-07-25T04:23:25.914Z,0.38
2022-07-25T04:26:03.871Z,0.50
2022-07-25T04:28:33.067Z,0.50
2022-07-25T04:31:00.115Z,0.70
2022-07-25T04:33:27.208Z,0.70
2022-07-25T04:35:54.307Z,1.00
2022-07-25T04:38:21.376Z,0.57
2022-07-25T04:40:50.404Z,0.95
2022-07-25T04:43:17.322Z,0.60
2022-07-25T04:45:44.321Z,0.98
2022-07-25T04:48:11.407Z,0.70
2022-07-25T04:50:38.431Z,0.90
2022-07-25T04:53:05.724Z,1.15
2022-07-25T04:55:33.209Z,0.60
2022-07-25T04:58:00.690Z,0.63
2022-07-25T05:00:27.700Z,0.47
2022-07-25T05:02:55.093Z,0.57
2022-07-25T05:05:22.504Z,0.70
2022-07-25T05:07:50.488Z,0.70
2022-07-25T05:10:17.803Z,0.60
2022-07-25T05:12:45.037Z,0.70
2022-07-25T05:15:12.749Z,0.68
2022-07-25T05:17:39.906Z,0.68
2022-07-25T05:20:07.447Z,0.60
2022-07-25T05:22:34.348Z,0.70
2022-07-25T05:25:02.519Z,0.90
2022-07-25T05:27:31.109Z,0.60
2022-07-25T05:29:58.585Z,0.85
2022-07-25T05:32:25.629Z,1.02
2022-07-25T05:34:53.037Z,0.80
2022-07-25T05:37:20.433Z,1.20
2022-07-25T05:39:47.371Z,0.77
2022-07-25T05:42:14.525Z,0.90
2022-07-25T05:44:41.950Z,0.90
2022-07-25T05:47:12.186Z,0.70
2022-07-25T05:49:39.730Z,0.55
2022-07-25T05:52:12.914Z,0.73
2022-07-25T05:54:40.812Z,0.82
2022-07-25T05:57:12.882Z,0.98
2022-07-25T05:59:40.309Z,0.97
2022-07-25T06:02:14.918Z,1.08
2022-07-25T06:04:44.289Z,1.00
2022-07-25T06:07:17.467Z,0.80
2022-07-25T06:09:44.616Z,0.90
2022-07-25T06:12:13.280Z,0.73
2022-07-25T06:14:59.068Z,0.70
2022-07-25T06:17:32.241Z,0.60
2022-07-25T06:19:59.961Z,0.60
2022-07-25T06:22:27.109Z,0.70
2022-07-25T06:24:59.544Z,0.68
2022-07-25T06:27:29.393Z,0.75
2022-07-25T06:29:59.084Z,0.70
2022-07-25T06:32:26.090Z,0.70
2022-07-25T06:34:52.990Z,0.40
2022-07-25T06:37:20.739Z,0.68
2022-07-25T06:39:50.223Z,0.90
2022-07-25T06:42:17.281Z,0.68
2022-07-25T06:44:44.762Z,0.82
2022-07-25T06:47:15.763Z,1.13
2022-07-25T06:49:43.224Z,0.52
2022-07-25T06:52:10.280Z,0.82
2022-07-25T06:54:45.644Z,0.80
2022-07-25T06:57:12.717Z,0.70
2022-07-25T06:59:40.122Z,0.90
2022-07-25T07:02:07.176Z,0.90
2022-07-25T07:04:34.801Z,0.80
2022-07-25T07:07:02.152Z,0.73
2022-07-25T07:09:29.274Z,1.00
2022-07-25T07:11:56.295Z,0.80
2022-07-25T07:14:23.659Z,1.00
2022-07-25T07:16:50.932Z,0.63
2022-07-25T07:19:17.929Z,0.68
2022-07-25T07:21:46.326Z,1.00
2022-07-25T07:24:24.076Z,0.77
2022-07-25T07:26:52.280Z,0.98
2022-07-25T07:29:19.331Z,1.00
2022-07-25T07:31:46.336Z,1.10
2022-07-25T07:34:14.498Z,0.80
2022-07-25T07:36:43.969Z,0.80
2022-07-25T07:39:11.769Z,0.75
2022-07-25T07:41:38.926Z,1.00
2022-07-25T07:44:08.808Z,0.60
2022-07-25T07:46:38.688Z,0.45
2022-07-25T07:49:06.499Z,0.68
2022-07-25T07:51:34.026Z,1.10
2022-07-25T07:54:21.893Z,0.40
2022-07-25T07:56:49.376Z,0.65
2022-07-25T07:59:16.520Z,0.77
2022-07-25T08:01:43.710Z,0.65
2022-07-25T08:04:10.983Z,1.10
2022-07-25T08:06:38.507Z,0.90
2022-07-25T08:09:05.735Z,1.00
2022-07-25T08:11:33.032Z,0.60
2022-07-25T08:14:02.856Z,0.65
2022-07-25T08:16:30.798Z,0.50
2022-07-25T08:18:58.403Z,0.70
2022-07-25T08:21:26.095Z,0.40
2022-07-25T08:23:53.164Z,0.60
2022-07-25T08:26:20.384Z,0.70
2022-07-25T08:28:52.517Z,0.70
2022-07-25T08:31:28.553Z,0.60
2022-07-25T08:33:58.482Z,0.60
2022-07-25T08:36:25.747Z,0.73
2022-07-25T08:38:53.412Z,0.70
2022-07-25T08:41:20.537Z,0.60
2022-07-25T08:43:52.146Z,0.60
2022-07-25T08:46:22.163Z,0.40
2022-07-25T08:48:49.241Z,0.40
2022-07-25T08:51:16.434Z,0.30
2022-07-25T08:53:43.778Z,0.20
2022-07-25T08:56:20.922Z,0.50
2022-07-25T09:01:15.572Z,0.45
2022-07-25T09:03:49.896Z,0.57
2022-07-25T09:06:19.385Z,0.50
2022-07-25T09:09:00.860Z,0.75
2022-07-25T09:11:35.956Z,0.40
2022-07-25T09:14:09.499Z,0.50
2022-07-25T09:16:40.141Z,0.60
2022-07-25T09:19:27.897Z,0.80
2022-07-25T09:22:00.461Z,0.80
2022-07-25T09:24:27.889Z,0.60
2022-07-25T09:26:56.770Z,0.60
2022-07-25T09:29:26.095Z,0.50
2022-07-25T09:31:54.430Z,0.57
2022-07-25T09:34:32.498Z,0.70
2022-07-25T09:37:00.082Z,0.57
2022-07-25T09:39:48.467Z,0.40
2022-07-25T09:42:20.597Z,0.60
2022-07-25T09:45:12.867Z,0.40
2022-07-25T09:47:56.324Z,0.37
2022-07-25T09:50:25.920Z,0.70
2022-07-25T09:52:54.057Z,0.52
2022-07-25T09:55:21.612Z,0.30
2022-07-25T09:57:50.499Z,0.50
2022-07-25T10:00:23.619Z,0.60
2022-07-25T10:03:17.617Z,0.50
2022-07-25T10:06:03.148Z,0.43
2022-07-25T10:08:30.808Z,0.35
2022-07-25T10:10:58.245Z,0.38
2022-07-25T10:13:34.553Z,0.45
2022-07-25T10:16:01.972Z,0.38
2022-07-25T10:18:29.949Z,0.20
2022-07-25T10:21:24.534Z,0.38
2022-07-25T10:24:37.651Z,0.43
2022-07-25T10:27:11.897Z,0.50
2022-07-25T10:29:42.956Z,0.52
2022-07-25T10:32:13.492Z,0.40
2022-07-25T10:34:44.504Z,0.30
2022-07-25T10:37:16.037Z,0.22
2022-07-25T10:39:45.116Z,0.30
2022-07-25T10:42:16.801Z,0.30
2022-07-25T10:44:51.783Z,0.20
2022-07-25T10:47:26.517Z,0.20
2022-07-25T10:50:34.374Z,0.40
2022-07-25T10:53:00.937Z,0.40
2022-07-25T10:55:28.883Z,0.30
2022-07-25T10:58:21.851Z,0.30
2022-07-25T11:00:51.429Z,0.22
2022-07-25T11:03:19.222Z,0.10
2022-07-25T11:05:47.898Z,0.30
2022-07-25T11:08:23.114Z,0.30
2022-07-25T11:10:56.730Z,0.30
2022-07-25T11:13:23.827Z,0.20
2022-07-25T11:15:51.072Z,0.40
2022-07-25T11:18:19.248Z,0.35
2022-07-25T11:20:46.365Z,0.28
2022-07-25T11:23:13.592Z,0.20
2022-07-25T11:25:42.646Z,0.30
2022-07-25T11:28:15.202Z,0.10
2022-07-25T11:30:42.237Z,0.30
2022-07-25T11:33:10.242Z,0.20
2022-07-25T11:35:39.822Z,0.10
2022-07-25T11:38:11.317Z,0.20
2022-07-25T11:40:44.334Z,0.20
2022-07-25T11:43:20.019Z,0.20
2022-07-25T11:46:18.630Z,0.30
2022-07-25T11:49:10.256Z,0.40
2022-07-25T11:51:38.948Z,0.38
2022-07-25T11:54:13.608Z,0.43
2022-07-25T11:56:42.829Z,0.40
2022-07-25T11:59:11.172Z,0.35
2022-07-25T12:01:40.193Z,0.32
2022-07-25T12:04:19.907Z,0.30
2022-07-25T12:06:51.631Z,0.35
2022-07-25T12:09:22.262Z,0.40
2022-07-25T12:11:52.227Z,0.38
2022-07-25T12:14:19.289Z,0.30
2022-07-25T12:16:46.483Z,0.30
2022-07-25T12:19:21.093Z,0.30
2022-07-25T12:21:48.215Z,0.30
2022-07-25T12:24:15.397Z,0.40
2022-07-25T12:26:42.854Z,0.20
2022-07-25T12:29:10.195Z,0.30
2022-07-25T12:31:39.175Z,0.20
2022-07-25T12:34:35.161Z,0.00
2022-07-25T12:37:02.146Z,0.13
2022-07-25T12:39:29.334Z,0.20
2022-07-25T12:41:57.008Z,0.30
2022-07-25T12:44:31.232Z,0.10
2022-07-25T12:46:58.245Z,0.20
2022-07-25T12:49:25.447Z,0.17
2022-07-25T12:51:58.238Z,0.40
2022-07-25T12:54:25.430Z,0.20
2022-07-25T12:56:58.115Z,0.30
2022-07-25T12:59:25.138Z,0.30
2022-07-25T13:01:52.210Z,0.20
2022-07-25T13:04:19.346Z,0.30
2022-07-25T13:06:46.801Z,0.20
2022-07-25T13:09:13.930Z,0.40
2022-07-25T13:11:44.088Z,0.30
2022-07-25T13:14:14.534Z,0.20
2022-07-25T13:16:43.043Z,0.57
2022-07-25T13:19:10.495Z,0.30
2022-07-25T13:21:38.791Z,0.20
2022-07-25T13:24:09.974Z,0.10
2022-07-25T13:26:37.231Z,0.45
2022-07-25T13:29:11.480Z,0.20
2022-07-25T13:31:41.576Z,0.30
2022-07-25T13:34:09.107Z,0.50
2022-07-25T13:36:36.887Z,0.40
2022-07-25T13:39:05.082Z,0.20
2022-07-25T13:41:32.518Z,0.20
2022-07-25T13:44:01.715Z,0.10
2022-07-25T13:46:44.233Z,0.10
2022-07-25T13:49:13.323Z,0.40
2022-07-25T13:51:40.664Z,0.40
2022-07-25T13:54:09.390Z,0.30
2022-07-25T13:56:38.604Z,0.50
2022-07-25T13:59:20.422Z,0.40
2022-07-25T14:01:49.186Z,0.20
2022-07-25T14:05:22.353Z,0.10
2022-07-25T14:13:37.781Z,0.30
2022-07-25T14:16:34.539Z,0.20
2022-07-25T14:22:46.187Z,0.20
2022-07-25T14:25:13.776Z,0.15
2022-07-25T14:27:43.057Z,0.20
2022-07-25T14:30:11.582Z,0.10
2022-07-25T14:32:40.215Z,0.28
2022-07-25T14:35:07.602Z,0.20
2022-07-25T14:37:36.800Z,0.20
2022-07-25T14:40:05.083Z,0.30
2022-07-25T14:42:37.149Z,0.40
2022-07-25T14:45:05.576Z,0.30
2022-07-25T14:47:36.337Z,0.30
2022-07-25T14:50:06.545Z,0.30
2022-07-25T14:52:33.845Z,0.30
2022-07-25T14:55:06.315Z,0.30
2022-07-25T15:00:08.296Z,0.35
2022-07-25T15:02:35.829Z,0.38
2022-07-25T15:05:03.369Z,0.30
2022-07-25T15:07:31.278Z,0.28
2022-07-25T15:10:00.505Z,0.17
2022-07-25T15:12:27.726Z,0.50
2022-07-25T15:14:55.284Z,0.30
2022-07-25T15:17:25.292Z,0.35
2022-07-25T15:19:52.529Z,0.40
2022-07-25T15:22:19.726Z,0.10
2022-07-25T15:25:27.246Z,0.15
2022-07-25T15:27:38.869Z,0.30
2022-07-25T15:30:07.353Z,0.30
2022-07-25T15:32:34.753Z,0.20
2022-07-25T15:35:02.008Z,0.20
2022-07-25T15:37:31.708Z,0.30
2022-07-25T15:39:58.873Z,0.25
2022-07-25T15:42:29.533Z,0.30
2022-07-25T15:45:22.240Z,0.30
2022-07-25T15:47:47.579Z,0.30
2022-07-25T15:50:21.001Z,0.40
2022-07-25T15:52:50.765Z,0.20
2022-07-25T15:55:20.473Z,0.35
2022-07-25T15:57:48.119Z,0.30
2022-07-25T16:00:15.983Z,0.30
2022-07-25T16:02:44.541Z,0.43
2022-07-25T16:05:14.875Z,0.35
2022-07-25T16:07:45.613Z,0.20
2022-07-25T16:10:13.178Z,0.40
2022-07-25T16:12:42.105Z,0.47
2022-07-25T16:15:10.483Z,0.30
2022-07-25T16:17:38.197Z,0.40
2022-07-25T16:20:09.527Z,0.25
2022-07-25T16:22:37.142Z,0.20
2022-07-25T16:25:04.770Z,0.30
2022-07-25T16:27:32.163Z,0.30
2022-07-25T16:30:00.225Z,0.40
2022-07-25T16:32:27.553Z,0.45
2022-07-25T16:34:54.616Z,0.70
2022-07-25T16:37:21.991Z,0.30
2022-07-25T16:39:49.129Z,0.30
2022-07-25T16:42:17.015Z,0.40
2022-07-25T16:44:44.058Z,0.22
2022-07-25T16:47:11.990Z,0.30
2022-07-25T16:49:40.980Z,0.32
2022-07-25T16:52:08.131Z,0.30
2022-07-25T16:54:35.847Z,0.32
2022-07-25T16:57:02.973Z,0.45
2022-07-25T16:59:30.866Z,0.40
2022-07-25T17:01:58.148Z,0.30
2022-07-25T17:04:25.691Z,0.38
2022-07-25T17:06:53.174Z,0.47
2022-07-25T17:09:20.169Z,0.40
2022-07-25T17:11:48.120Z,0.32
2022-07-25T17:14:15.318Z,0.40
2022-07-25T17:16:43.109Z,0.70
2022-07-25T17:19:10.755Z,0.20
2022-07-25T17:21:38.382Z,0.40
2022-07-25T17:24:05.729Z,0.25
2022-07-25T17:26:32.949Z,0.20
2022-07-25T17:29:00.141Z,0.35
2022-07-25T17:31:27.277Z,0.25
2022-07-25T17:33:54.408Z,0.30
2022-07-25T17:36:21.576Z,0.30
2022-07-25T17:38:48.722Z,0.40
2022-07-25T17:41:16.248Z,0.40
2022-07-25T17:43:43.833Z,0.40
2022-07-25T17:46:13.714Z,0.68
2022-07-25T17:48:41.691Z,0.40
2022-07-25T17:51:09.526Z,0.32
2022-07-25T17:53:36.991Z,0.60
2022-07-25T17:56:04.624Z,0.40
2022-07-25T17:58:32.275Z,0.30
2022-07-25T18:01:01.361Z,0.20
2022-07-25T18:03:30.038Z,0.40
2022-07-25T18:05:57.541Z,0.40
2022-07-25T18:08:27.549Z,0.30
2022-07-25T18:10:57.989Z,0.40
2022-07-25T18:13:27.661Z,0.32
2022-07-25T18:15:55.316Z,0.30
2022-07-25T18:18:33.574Z,0.50
2022-07-25T18:21:04.089Z,0.50
2022-07-25T18:23:31.614Z,0.40
2022-07-25T18:25:58.845Z,0.22
2022-07-25T18:28:29.136Z,0.38
2022-07-25T18:31:00.262Z,0.30
2022-07-25T18:33:28.098Z,0.57
2022-07-25T18:35:55.669Z,0.47
2022-07-25T18:38:24.689Z,0.20
2022-07-25T18:41:12.333Z,0.20
2022-07-25T18:43:45.764Z,0.30
2022-07-25T18:46:16.032Z,0.40
2022-07-25T18:52:02.704Z,0.30
2022-07-25T18:54:30.230Z,0.32
2022-07-25T18:57:00.030Z,0.28
2022-07-25T18:59:40.769Z,0.30
2022-07-25T19:08:27.094Z,0.40
2022-07-25T19:11:21.321Z,0.20
2022-07-25T19:13:51.660Z,0.30
2022-07-25T19:16:25.667Z,0.20
2022-07-25T19:19:35.579Z,0.30
2022-07-25T19:21:58.983Z,0.30
2022-07-25T19:24:38.391Z,0.43
2022-07-25T19:27:15.011Z,0.20
2022-07-25T19:29:51.137Z,0.30
2022-07-25T19:32:20.936Z,0.15
2022-07-25T19:34:54.128Z,0.38
2022-07-25T19:37:44.212Z,0.35
2022-07-25T19:41:11.153Z,0.43
2022-07-25T19:50:44.601Z,0.30
2022-07-25T19:53:28.209Z,0.30
2022-07-25T19:56:07.971Z,0.20
2022-07-25T19:58:40.346Z,0.30
2022-07-25T20:01:20.176Z,0.43
2022-07-25T20:03:54.057Z,0.47
2022-07-25T20:06:24.370Z,0.30
2022-07-25T20:08:54.493Z,0.30
2022-07-25T20:11:28.365Z,0.43
2022-07-25T20:13:59.864Z,0.30
2022-07-25T20:16:31.576Z,0.28
2022-07-25T20:18:58.863Z,0.50
2022-07-25T20:21:35.260Z,0.38
2022-07-25T20:24:02.434Z,0.50
2022-07-25T20:26:36.077Z,0.22
2022-07-25T20:29:04.746Z,0.30
2022-07-25T20:31:38.171Z,0.35
2022-07-25T20:34:07.567Z,0.40
2022-07-25T20:36:40.005Z,0.32
2022-07-25T20:39:09.352Z,0.30
2022-07-25T20:41:42.505Z,0.20
2022-07-25T20:44:11.919Z,0.30
2022-07-25T20:46:39.491Z,0.35
2022-07-25T20:49:08.998Z,0.30
2022-07-25T20:51:42.067Z,0.38
2022-07-25T20:54:14.816Z,0.30
2022-07-25T20:56:42.253Z,0.20
2022-07-25T20:59:38.042Z,0.35
2022-07-25T21:02:05.486Z,0.40
2022-07-25T21:04:32.821Z,0.35
2022-07-25T21:08:06.037Z,0.47
2022-07-25T21:10:01.277Z,0.40
2022-07-25T21:13:18.499Z,0.40
2022-07-25T21:22:35.380Z,0.22
2022-07-25T21:25:02.463Z,0.50
2022-07-25T21:27:29.475Z,0.60
2022-07-25T21:29:56.597Z,0.28
2022-07-25T21:32:23.748Z,0.40
2022-07-25T21:34:53.864Z,0.40
2022-07-25T21:37:20.849Z,0.50
2022-07-25T21:39:47.960Z,0.43
2022-07-25T21:42:15.190Z,0.40
2022-07-25T21:44:43.036Z,0.40
2022-07-25T21:47:10.139Z,0.40
2022-07-25T21:49:57.222Z,0.30
2022-07-25T21:52:30.268Z,0.10
2022-07-25T21:55:02.572Z,0.30
2022-07-25T21:57:30.212Z,0.40
2022-07-25T21:59:57.426Z,0.20
2022-07-25T22:02:24.704Z,0.20
2022-07-25T22:04:51.834Z,0.20
2022-07-25T22:07:20.193Z,0.20
2022-07-25T22:09:47.148Z,0.20
2022-07-25T22:12:14.745Z,0.30
2022-07-25T22:14:41.804Z,0.22
2022-07-25T22:17:09.474Z,0.20
2022-07-25T22:19:36.484Z,0.50
2022-07-25T22:22:05.813Z,0.43
2022-07-25T22:24:32.884Z,0.30
2022-07-25T22:27:01.165Z,0.45
2022-07-25T22:29:28.528Z,0.20
2022-07-25T22:31:55.903Z,0.38
2022-07-25T22:34:22.867Z,0.10
2022-07-25T22:36:50.123Z,0.28
2022-07-25T22:39:17.108Z,0.30
2022-07-25T22:41:44.257Z,0.30
2022-07-25T22:44:11.237Z,0.40
2022-07-25T22:46:38.942Z,0.55
2022-07-25T22:49:06.286Z,0.30
2022-07-25T22:51:34.028Z,0.57
2022-07-25T22:54:02.128Z,0.20
2022-07-25T22:56:29.419Z,0.60
2022-07-25T22:58:56.469Z,0.80
2022-07-25T23:01:23.635Z,0.60
2022-07-25T23:03:50.614Z,0.50
2022-07-25T23:06:18.751Z,0.47
2022-07-25T23:08:46.098Z,0.50
2022-07-25T23:11:13.193Z,0.40
2022-07-25T23:13:40.161Z,0.38
2022-07-25T23:16:10.153Z,0.38
2022-07-25T23:18:38.237Z,0.63
2022-07-25T23:21:05.348Z,0.30
2022-07-25T23:23:34.011Z,0.30
2022-07-25T23:26:01.429Z,0.30
2022-07-25T23:28:30.512Z,0.40
2022-07-25T23:30:57.888Z,0.80
2022-07-25T23:33:25.835Z,0.60
2022-07-25T23:35:58.322Z,0.60
2022-07-25T23:38:25.437Z,0.38
2022-07-25T23:40:57.334Z,0.40
2022-07-25T23:43:59.197Z,0.40
2022-07-25T23:47:10.308Z,0.52
2022-07-25T23:49:39.975Z,0.40
2022-07-25T23:52:07.016Z,0.57
2022-07-25T23:54:35.098Z,0.75
2022-07-25T23:57:02.522Z,0.40
2022-07-25T23:59:29.797Z,0.25
